sensor_id;sensor_type;location;lat;lon;timestamp;pressure;altitude;pressure_sealevel;temperature
34807;BMP280;18310;55.586;12.286;2023-11-18T00:00:20;102439.44;;;6.91
34807;BMP280;18310;55.586;12.286;2023-11-18T00:03:25;102442.41;;;6.85
34807;BMP280;18310;55.586;12.286;2023-11-18T00:06:30;102437.84;;;6.80
34807;BMP280;18310;55.586;12.286;2023-11-18T00:09:34;102439.16;;;6.83
34807;BMP280;18310;55.586;12.286;2023-11-18T00:12:40;102451.06;;;6.87
34807;BMP280;18310;55.586;12.286;2023-11-18T00:15:45;102450.25;;;6.86
34807;BMP280;18310;55.586;12.286;2023-11-18T00:18:51;102455.13;;;6.89
34807;BMP280;18310;55.586;12.286;2023-11-18T00:21:57;102454.59;;;6.87
34807;BMP280;18310;55.586;12.286;2023-11-18T00:25:07;102454.88;;;6.81
34807;BMP280;18310;55.586;12.286;2023-11-18T00:28:21;102452.47;;;6.69
34807;BMP280;18310;55.586;12.286;2023-11-18T00:31:26;102463.03;;;6.71
34807;BMP280;18310;55.586;12.286;2023-11-18T00:34:32;102461.41;;;6.70
34807;BMP280;18310;55.586;12.286;2023-11-18T00:37:38;102466.34;;;6.68
34807;BMP280;18310;55.586;12.286;2023-11-18T00:40:42;102467.41;;;6.67
34807;BMP280;18310;55.586;12.286;2023-11-18T00:43:48;102470.13;;;6.67
34807;BMP280;18310;55.586;12.286;2023-11-18T00:46:52;102470.94;;;6.67
34807;BMP280;18310;55.586;12.286;2023-11-18T00:49:57;102472.03;;;6.66
34807;BMP280;18310;55.586;12.286;2023-11-18T00:53:09;102470.41;;;6.65
34807;BMP280;18310;55.586;12.286;2023-11-18T00:56:15;102474.72;;;6.61
34807;BMP280;18310;55.586;12.286;2023-11-18T00:59:24;102478.56;;;6.55
34807;BMP280;18310;55.586;12.286;2023-11-18T01:02:29;102481.53;;;6.48
34807;BMP280;18310;55.586;12.286;2023-11-18T01:07:54;102485.34;;;6.42
34807;BMP280;18310;55.586;12.286;2023-11-18T01:10:58;102498.03;;;6.47
34807;BMP280;18310;55.586;12.286;2023-11-18T01:14:02;102501.53;;;6.47
34807;BMP280;18310;55.586;12.286;2023-11-18T01:17:08;102502.34;;;6.48
34807;BMP280;18310;55.586;12.286;2023-11-18T01:20:13;102495.31;;;6.47
34807;BMP280;18310;55.586;12.286;2023-11-18T01:24:07;102502.91;;;6.45
34807;BMP280;18310;55.586;12.286;2023-11-18T01:27:11;102513.72;;;6.45
34807;BMP280;18310;55.586;12.286;2023-11-18T01:30:21;102511.03;;;6.45
34807;BMP280;18310;55.586;12.286;2023-11-18T01:33:27;102514.56;;;6.45
34807;BMP280;18310;55.586;12.286;2023-11-18T01:36:35;102516.97;;;6.47
34807;BMP280;18310;55.586;12.286;2023-11-18T01:39:43;102521.84;;;6.45
34807;BMP280;18310;55.586;12.286;2023-11-18T01:42:52;102519.72;;;6.42
34807;BMP280;18310;55.586;12.286;2023-11-18T01:45:59;102528.63;;;6.37
34807;BMP280;18310;55.586;12.286;2023-11-18T01:49:04;102524.31;;;6.31
34807;BMP280;18310;55.586;12.286;2023-11-18T01:52:35;102525.41;;;6.25
34807;BMP280;18310;55.586;12.286;2023-11-18T01:55:46;102543.53;;;6.20
34807;BMP280;18310;55.586;12.286;2023-11-18T01:58:53;102533.53;;;6.15
34807;BMP280;18310;55.586;12.286;2023-11-18T02:01:57;102536.75;;;6.12
34807;BMP280;18310;55.586;12.286;2023-11-18T02:05:03;102530.28;;;6.08
34807;BMP280;18310;55.586;12.286;2023-11-18T02:08:12;102543.81;;;6.08
34807;BMP280;18310;55.586;12.286;2023-11-18T02:11:23;102542.44;;;6.05
34807;BMP280;18310;55.586;12.286;2023-11-18T02:14:31;102551.34;;;6.06
34807;BMP280;18310;55.586;12.286;2023-11-18T02:17:41;102553.53;;;6.09
34807;BMP280;18310;55.586;12.286;2023-11-18T02:20:49;102549.19;;;6.13
34807;BMP280;18310;55.586;12.286;2023-11-18T02:23:58;102548.38;;;6.18
34807;BMP280;18310;55.586;12.286;2023-11-18T02:27:10;102549.19;;;6.23
34807;BMP280;18310;55.586;12.286;2023-11-18T02:30:17;102542.97;;;6.28
34807;BMP280;18310;55.586;12.286;2023-11-18T02:33:31;102542.97;;;6.33
34807;BMP280;18310;55.586;12.286;2023-11-18T02:36:46;102538.88;;;6.35
34807;BMP280;18310;55.586;12.286;2023-11-18T02:39:55;102544.06;;;6.42
34807;BMP280;18310;55.586;12.286;2023-11-18T02:43:08;102542.38;;;6.46
34807;BMP280;18310;55.586;12.286;2023-11-18T02:46:20;102540.47;;;6.46
34807;BMP280;18310;55.586;12.286;2023-11-18T02:49:26;102536.44;;;6.49
34807;BMP280;18310;55.586;12.286;2023-11-18T02:52:33;102543.22;;;6.51
34807;BMP280;18310;55.586;12.286;2023-11-18T02:55:38;102547.53;;;6.52
34807;BMP280;18310;55.586;12.286;2023-11-18T02:58:53;102532.38;;;6.51
34807;BMP280;18310;55.586;12.286;2023-11-18T03:02:12;102533.47;;;6.50
34807;BMP280;18310;55.586;12.286;2023-11-18T03:05:19;102517.53;;;6.44
34807;BMP280;18310;55.586;12.286;2023-11-18T03:08:27;102530.53;;;6.42
34807;BMP280;18310;55.586;12.286;2023-11-18T03:11:32;102532.97;;;6.33
34807;BMP280;18310;55.586;12.286;2023-11-18T03:14:39;102527.84;;;6.27
34807;BMP280;18310;55.586;12.286;2023-11-18T03:17:44;102527.56;;;6.23
34807;BMP280;18310;55.586;12.286;2023-11-18T03:20:52;102523.78;;;6.19
34807;BMP280;18310;55.586;12.286;2023-11-18T03:23:59;102518.91;;;6.16
34807;BMP280;18310;55.586;12.286;2023-11-18T03:27:04;102520.53;;;6.12
34807;BMP280;18310;55.586;12.286;2023-11-18T03:30:13;102516.75;;;6.08
34807;BMP280;18310;55.586;12.286;2023-11-18T03:33:20;102524.31;;;6.06
34807;BMP280;18310;55.586;12.286;2023-11-18T03:36:25;102517.56;;;6.03
34807;BMP280;18310;55.586;12.286;2023-11-18T03:39:30;102515.72;;;5.99
34807;BMP280;18310;55.586;12.286;2023-11-18T03:42:35;102519.75;;;5.96
34807;BMP280;18310;55.586;12.286;2023-11-18T03:45:41;102520.00;;;5.95
34807;BMP280;18310;55.586;12.286;2023-11-18T03:48:49;102511.63;;;5.91
34807;BMP280;18310;55.586;12.286;2023-11-18T03:51:55;102521.06;;;5.89
34807;BMP280;18310;55.586;12.286;2023-11-18T03:55:02;102513.28;;;5.87
34807;BMP280;18310;55.586;12.286;2023-11-18T03:58:20;102508.94;;;5.81
34807;BMP280;18310;55.586;12.286;2023-11-18T04:01:29;102497.81;;;5.78
34807;BMP280;18310;55.586;12.286;2023-11-18T04:04:41;102508.38;;;5.79
34807;BMP280;18310;55.586;12.286;2023-11-18T04:08:02;102505.13;;;5.77
34807;BMP280;18310;55.586;12.286;2023-11-18T04:11:10;102497.81;;;5.78
34807;BMP280;18310;55.586;12.286;2023-11-18T04:14:18;102500.00;;;5.76
34807;BMP280;18310;55.586;12.286;2023-11-18T04:17:30;102498.13;;;5.76
34807;BMP280;18310;55.586;12.286;2023-11-18T04:20:35;102498.38;;;5.74
34807;BMP280;18310;55.586;12.286;2023-11-18T04:23:42;102458.94;;;5.53
34807;BMP280;18310;55.586;12.286;2023-11-18T04:26:46;102496.22;;;5.71
34807;BMP280;18310;55.586;12.286;2023-11-18T04:29:51;102488.66;;;5.68
34807;BMP280;18310;55.586;12.286;2023-11-18T04:32:57;102488.66;;;5.68
34807;BMP280;18310;55.586;12.286;2023-11-18T04:36:04;102490.00;;;5.66
34807;BMP280;18310;55.586;12.286;2023-11-18T04:39:09;102486.22;;;5.62
34807;BMP280;18310;55.586;12.286;2023-11-18T04:42:15;102480.53;;;5.58
34807;BMP280;18310;55.586;12.286;2023-11-18T04:45:21;102482.97;;;5.60
34807;BMP280;18310;55.586;12.286;2023-11-18T04:48:32;102485.66;;;5.60
34807;BMP280;18310;55.586;12.286;2023-11-18T04:51:45;102486.22;;;5.57
34807;BMP280;18310;55.586;12.286;2023-11-18T04:54:49;102481.09;;;5.50
34807;BMP280;18310;55.586;12.286;2023-11-18T04:57:53;102485.94;;;5.48
34807;BMP280;18310;55.586;12.286;2023-11-18T05:00:57;102486.72;;;5.44
34807;BMP280;18310;55.586;12.286;2023-11-18T05:04:04;102478.91;;;5.37
34807;BMP280;18310;55.586;12.286;2023-11-18T05:07:14;102478.88;;;5.32
34807;BMP280;18310;55.586;12.286;2023-11-18T05:10:24;102475.66;;;5.30
34807;BMP280;18310;55.586;12.286;2023-11-18T05:13:28;102484.00;;;5.28
34807;BMP280;18310;55.586;12.286;2023-11-18T05:16:32;102489.66;;;5.27
34807;BMP280;18310;55.586;12.286;2023-11-18T05:19:39;102489.94;;;5.25
34807;BMP280;18310;55.586;12.286;2023-11-18T05:22:48;102487.78;;;5.22
34807;BMP280;18310;55.586;12.286;2023-11-18T05:25:53;102490.19;;;5.19
34807;BMP280;18310;55.586;12.286;2023-11-18T05:29:01;102484.00;;;5.18
34807;BMP280;18310;55.586;12.286;2023-11-18T05:32:07;102489.38;;;5.18
34807;BMP280;18310;55.586;12.286;2023-11-18T05:35:12;102491.53;;;5.21
34807;BMP280;18310;55.586;12.286;2023-11-18T05:38:17;102488.84;;;5.21
34807;BMP280;18310;55.586;12.286;2023-11-18T05:41:24;102489.09;;;5.20
34807;BMP280;18310;55.586;12.286;2023-11-18T05:44:34;102493.94;;;5.13
34807;BMP280;18310;55.586;12.286;2023-11-18T05:47:41;102496.88;;;5.11
34807;BMP280;18310;55.586;12.286;2023-11-18T05:50:47;102490.13;;;5.09
34807;BMP280;18310;55.586;12.286;2023-11-18T05:53:52;102499.03;;;5.09
34807;BMP280;18310;55.586;12.286;2023-11-18T05:56:58;102498.53;;;5.07
34807;BMP280;18310;55.586;12.286;2023-11-18T06:00:04;102499.63;;;5.06
34807;BMP280;18310;55.586;12.286;2023-11-18T06:03:12;102504.19;;;5.06
34807;BMP280;18310;55.586;12.286;2023-11-18T06:06:27;102501.50;;;5.06
34807;BMP280;18310;55.586;12.286;2023-11-18T06:09:35;102497.72;;;5.07
34807;BMP280;18310;55.586;12.286;2023-11-18T06:12:40;102506.91;;;5.06
34807;BMP280;18310;55.586;12.286;2023-11-18T06:15:48;102502.81;;;5.03
34807;BMP280;18310;55.586;12.286;2023-11-18T06:18:55;102507.41;;;5.03
34807;BMP280;18310;55.586;12.286;2023-11-18T06:22:03;102509.28;;;5.02
34807;BMP280;18310;55.586;12.286;2023-11-18T06:25:09;102506.84;;;5.01
34807;BMP280;18310;55.586;12.286;2023-11-18T06:28:16;102513.31;;;5.00
34807;BMP280;18310;55.586;12.286;2023-11-18T06:31:21;102515.50;;;5.03
34807;BMP280;18310;55.586;12.286;2023-11-18T06:34:27;102520.66;;;5.04
34807;BMP280;18310;55.586;12.286;2023-11-18T06:37:33;102528.44;;;5.01
34807;BMP280;18310;55.586;12.286;2023-11-18T06:40:55;102531.19;;;5.06
34807;BMP280;18310;55.586;12.286;2023-11-18T06:44:00;102537.41;;;5.06
34807;BMP280;18310;55.586;12.286;2023-11-18T06:47:12;102533.31;;;5.09
34807;BMP280;18310;55.586;12.286;2023-11-18T06:50:21;102536.56;;;5.11
34807;BMP280;18310;55.586;12.286;2023-11-18T06:53:29;102541.69;;;5.12
34807;BMP280;18310;55.586;12.286;2023-11-18T06:56:37;102541.97;;;5.11
34807;BMP280;18310;55.586;12.286;2023-11-18T06:59:43;102545.47;;;5.11
34807;BMP280;18310;55.586;12.286;2023-11-18T07:02:55;102552.53;;;5.07
34807;BMP280;18310;55.586;12.286;2023-11-18T07:06:01;102552.47;;;5.02
34807;BMP280;18310;55.586;12.286;2023-11-18T07:09:06;102546.50;;;5.00
34807;BMP280;18310;55.586;12.286;2023-11-18T07:12:18;102552.97;;;4.99
34807;BMP280;18310;55.586;12.286;2023-11-18T07:15:22;102549.47;;;4.99
34807;BMP280;18310;55.586;12.286;2023-11-18T07:18:27;102562.72;;;5.00
34807;BMP280;18310;55.586;12.286;2023-11-18T07:21:36;102560.31;;;5.04
34807;BMP280;18310;55.586;12.286;2023-11-18T07:24:41;102559.50;;;5.08
34807;BMP280;18310;55.586;12.286;2023-11-18T07:27:53;102566.81;;;5.13
34807;BMP280;18310;55.586;12.286;2023-11-18T07:30:58;102569.81;;;5.16
34807;BMP280;18310;55.586;12.286;2023-11-18T07:34:02;102566.81;;;5.13
34807;BMP280;18310;55.586;12.286;2023-11-18T07:37:08;102573.34;;;5.22
34807;BMP280;18310;55.586;12.286;2023-11-18T07:40:13;102576.59;;;5.24
34807;BMP280;18310;55.586;12.286;2023-11-18T07:43:26;102573.63;;;5.30
34807;BMP280;18310;55.586;12.286;2023-11-18T07:46:31;102574.19;;;5.32
34807;BMP280;18310;55.586;12.286;2023-11-18T07:49:36;102576.38;;;5.36
34807;BMP280;18310;55.586;12.286;2023-11-18T07:52:40;102573.69;;;5.41
34807;BMP280;18310;55.586;12.286;2023-11-18T07:55:46;102572.31;;;5.43
34807;BMP280;18310;55.586;12.286;2023-11-18T07:58:55;102573.44;;;5.47
34807;BMP280;18310;55.586;12.286;2023-11-18T08:01:59;102575.59;;;5.50
34807;BMP280;18310;55.586;12.286;2023-11-18T08:05:08;102575.09;;;5.53
34807;BMP280;18310;55.586;12.286;2023-11-18T08:08:16;102586.44;;;5.60
34807;BMP280;18310;55.586;12.286;2023-11-18T08:11:22;102575.38;;;5.67
34807;BMP280;18310;55.586;12.286;2023-11-18T08:14:31;102578.88;;;5.78
34807;BMP280;18310;55.586;12.286;2023-11-18T08:19:24;102572.97;;;5.91
34807;BMP280;18310;55.586;12.286;2023-11-18T08:22:30;102579.47;;;6.00
34807;BMP280;18310;55.586;12.286;2023-11-18T08:25:35;102569.75;;;6.09
34807;BMP280;18310;55.586;12.286;2023-11-18T08:28:39;102579.22;;;6.22
34807;BMP280;18310;55.586;12.286;2023-11-18T08:31:44;102589.22;;;6.31
34807;BMP280;18310;55.586;12.286;2023-11-18T08:34:52;102591.38;;;6.39
34807;BMP280;18310;55.586;12.286;2023-11-18T08:37:59;102595.41;;;6.47
34807;BMP280;18310;55.586;12.286;2023-11-18T08:41:05;102594.06;;;6.49
34807;BMP280;18310;55.586;12.286;2023-11-18T08:44:11;102609.22;;;6.66
34807;BMP280;18310;55.586;12.286;2023-11-18T08:47:26;102597.53;;;6.80
34807;BMP280;18310;55.586;12.286;2023-11-18T08:50:32;102604.50;;;6.96
34807;BMP280;18310;55.586;12.286;2023-11-18T08:53:36;102601.22;;;7.10
34807;BMP280;18310;55.586;12.286;2023-11-18T08:56:46;102604.41;;;7.22
34807;BMP280;18310;55.586;12.286;2023-11-18T08:59:53;102598.69;;;7.33
34807;BMP280;18310;55.586;12.286;2023-11-18T09:03:04;102598.06;;;7.47
34807;BMP280;18310;55.586;12.286;2023-11-18T09:06:14;102585.53;;;7.56
34807;BMP280;18310;55.586;12.286;2023-11-18T09:09:30;102585.47;;;7.66
34807;BMP280;18310;55.586;12.286;2023-11-18T09:12:37;102588.66;;;7.78
34807;BMP280;18310;55.586;12.286;2023-11-18T09:15:46;102585.31;;;7.91
34807;BMP280;18310;55.586;12.286;2023-11-18T09:18:51;102586.22;;;8.10
34807;BMP280;18310;55.586;12.286;2023-11-18T09:21:57;102585.81;;;8.27
34807;BMP280;18310;55.586;12.286;2023-11-18T09:25:02;102571.44;;;8.27
34807;BMP280;18310;55.586;12.286;2023-11-18T09:28:12;102581.53;;;8.50
34807;BMP280;18310;55.586;12.286;2023-11-18T09:31:18;102571.66;;;8.59
34807;BMP280;18310;55.586;12.286;2023-11-18T09:34:24;102575.06;;;8.70
34807;BMP280;18310;55.586;12.286;2023-11-18T09:37:37;102570.53;;;8.84
34807;BMP280;18310;55.586;12.286;2023-11-18T09:40:43;102563.88;;;8.95
34807;BMP280;18310;55.586;12.286;2023-11-18T09:43:52;102569.44;;;9.09
34807;BMP280;18310;55.586;12.286;2023-11-18T09:47:01;102562.13;;;9.23
34807;BMP280;18310;55.586;12.286;2023-11-18T09:50:12;102555.19;;;9.35
34807;BMP280;18310;55.586;12.286;2023-11-18T09:53:26;102552.63;;;9.44
34807;BMP280;18310;55.586;12.286;2023-11-18T09:56:41;102536.72;;;9.51
34807;BMP280;18310;55.586;12.286;2023-11-18T10:00:01;102545.94;;;9.55
34807;BMP280;18310;55.586;12.286;2023-11-18T10:03:23;102540.38;;;9.60
34807;BMP280;18310;55.586;12.286;2023-11-18T10:06:27;102548.97;;;9.67
34807;BMP280;18310;55.586;12.286;2023-11-18T10:09:41;102543.66;;;9.76
34807;BMP280;18310;55.586;12.286;2023-11-18T10:12:53;102544.88;;;9.83
34807;BMP280;18310;55.586;12.286;2023-11-18T10:16:03;102538.28;;;9.89
34807;BMP280;18310;55.586;12.286;2023-11-18T10:19:10;102537.59;;;9.98
34807;BMP280;18310;55.586;12.286;2023-11-18T10:22:21;102540.41;;;10.06
34807;BMP280;18310;55.586;12.286;2023-11-18T10:25:28;102545.78;;;10.11
34807;BMP280;18310;55.586;12.286;2023-11-18T10:28:34;102545.16;;;10.14
34807;BMP280;18310;55.586;12.286;2023-11-18T10:31:41;102544.53;;;10.17
34807;BMP280;18310;55.586;12.286;2023-11-18T10:34:48;102544.78;;;10.21
34807;BMP280;18310;55.586;12.286;2023-11-18T10:37:54;102547.38;;;10.26
34807;BMP280;18310;55.586;12.286;2023-11-18T10:41:02;102540.25;;;10.30
34807;BMP280;18310;55.586;12.286;2023-11-18T10:44:29;102535.22;;;10.37
34807;BMP280;18310;55.586;12.286;2023-11-18T10:47:34;102532.38;;;10.42
34807;BMP280;18310;55.586;12.286;2023-11-18T10:50:46;102530.69;;;10.46
34807;BMP280;18310;55.586;12.286;2023-11-18T10:53:54;102531.25;;;10.43
34807;BMP280;18310;55.586;12.286;2023-11-18T10:57:02;102525.81;;;10.43
34807;BMP280;18310;55.586;12.286;2023-11-18T11:00:17;102513.25;;;10.47
34807;BMP280;18310;55.586;12.286;2023-11-18T11:03:30;102509.28;;;10.53
34807;BMP280;18310;55.586;12.286;2023-11-18T11:06:41;102512.91;;;10.49
34807;BMP280;18310;55.586;12.286;2023-11-18T11:09:48;102510.81;;;10.46
34807;BMP280;18310;55.586;12.286;2023-11-18T11:13:01;102502.34;;;10.47
34807;BMP280;18310;55.586;12.286;2023-11-18T11:16:11;102497.38;;;10.49
34807;BMP280;18310;55.586;12.286;2023-11-18T11:19:26;102483.16;;;10.52
34807;BMP280;18310;55.586;12.286;2023-11-18T11:22:38;102492.34;;;10.56
34807;BMP280;18310;55.586;12.286;2023-11-18T11:25:53;102488.53;;;10.57
34807;BMP280;18310;55.586;12.286;2023-11-18T11:29:25;102504.72;;;10.62
34807;BMP280;18310;55.586;12.286;2023-11-18T11:32:35;102503.63;;;10.63
34807;BMP280;18310;55.586;12.286;2023-11-18T11:35:49;102495.44;;;10.63
34807;BMP280;18310;55.586;12.286;2023-11-18T11:38:59;102504.63;;;10.67
34807;BMP280;18310;55.586;12.286;2023-11-18T11:42:07;102506.25;;;10.68
34807;BMP280;18310;55.586;12.286;2023-11-18T11:45:52;102499.38;;;10.71
34807;BMP280;18310;55.586;12.286;2023-11-18T11:49:00;102499.69;;;10.69
34807;BMP280;18310;55.586;12.286;2023-11-18T11:52:18;102490.41;;;10.70
34807;BMP280;18310;55.586;12.286;2023-11-18T11:55:31;102486.19;;;10.64
34807;BMP280;18310;55.586;12.286;2023-11-18T11:58:41;102477.78;;;10.61
34807;BMP280;18310;55.586;12.286;2023-11-18T12:02:13;102469.47;;;10.57
34807;BMP280;18310;55.586;12.286;2023-11-18T12:05:19;102472.84;;;10.63
34807;BMP280;18310;55.586;12.286;2023-11-18T12:08:30;102471.53;;;10.60
34807;BMP280;18310;55.586;12.286;2023-11-18T12:11:35;102465.94;;;10.57
34807;BMP280;18310;55.586;12.286;2023-11-18T12:14:51;102452.69;;;10.50
34807;BMP280;18310;55.586;12.286;2023-11-18T12:18:12;102462.69;;;10.55
34807;BMP280;18310;55.586;12.286;2023-11-18T12:25:31;102464.91;;;10.53
34807;BMP280;18310;55.586;12.286;2023-11-18T12:28:40;102461.06;;;10.54
34807;BMP280;18310;55.586;12.286;2023-11-18T12:31:50;102463.22;;;10.57
34807;BMP280;18310;55.586;12.286;2023-11-18T12:34:56;102458.44;;;10.62
34807;BMP280;18310;55.586;12.286;2023-11-18T12:38:30;102453.78;;;10.63
34807;BMP280;18310;55.586;12.286;2023-11-18T12:42:00;102442.09;;;10.62
34807;BMP280;18310;55.586;12.286;2023-11-18T12:45:55;102440.28;;;10.58
34807;BMP280;18310;55.586;12.286;2023-11-18T12:49:13;102436.28;;;10.55
34807;BMP280;18310;55.586;12.286;2023-11-18T12:52:21;102434.94;;;10.53
34807;BMP280;18310;55.586;12.286;2023-11-18T12:55:44;102428.19;;;10.50
34807;BMP280;18310;55.586;12.286;2023-11-18T12:58:47;102429.94;;;10.46
34807;BMP280;18310;55.586;12.286;2023-11-18T13:01:55;102427.81;;;10.43
34807;BMP280;18310;55.586;12.286;2023-11-18T13:05:05;102434.88;;;10.44
34807;BMP280;18310;55.586;12.286;2023-11-18T13:08:12;102430.53;;;10.43
34807;BMP280;18310;55.586;12.286;2023-11-18T13:11:23;102428.91;;;10.42
34807;BMP280;18310;55.586;12.286;2023-11-18T13:14:34;102418.03;;;10.42
34807;BMP280;18310;55.586;12.286;2023-11-18T13:17:57;102415.31;;;10.42
34807;BMP280;18310;55.586;12.286;2023-11-18T13:21:02;102412.91;;;10.41
34807;BMP280;18310;55.586;12.286;2023-11-18T13:24:13;102409.66;;;10.39
34807;BMP280;18310;55.586;12.286;2023-11-18T13:27:20;102411.91;;;10.37
34807;BMP280;18310;55.586;12.286;2023-11-18T13:30:27;102407.56;;;10.35
34807;BMP280;18310;55.586;12.286;2023-11-18T13:33:31;102412.50;;;10.33
34807;BMP280;18310;55.586;12.286;2023-11-18T13:36:36;102406.06;;;10.29
34807;BMP280;18310;55.586;12.286;2023-11-18T13:39:41;102415.22;;;10.33
34807;BMP280;18310;55.586;12.286;2023-11-18T13:43:03;102403.63;;;10.28
34807;BMP280;18310;55.586;12.286;2023-11-18T13:46:11;102401.84;;;10.23
34807;BMP280;18310;55.586;12.286;2023-11-18T13:49:37;102396.19;;;10.20
34807;BMP280;18310;55.586;12.286;2023-11-18T13:52:49;102391.34;;;10.17
34807;BMP280;18310;55.586;12.286;2023-11-18T13:55:54;102386.34;;;10.10
34807;BMP280;18310;55.586;12.286;2023-11-18T13:59:03;102384.53;;;10.06
34807;BMP280;18310;55.586;12.286;2023-11-18T14:02:14;102370.22;;;10.00
34807;BMP280;18310;55.586;12.286;2023-11-18T14:05:22;102363.78;;;9.96
34807;BMP280;18310;55.586;12.286;2023-11-18T14:08:30;102350.25;;;9.91
34807;BMP280;18310;55.586;12.286;2023-11-18T14:11:35;102352.88;;;9.82
34807;BMP280;18310;55.586;12.286;2023-11-18T14:14:40;102342.94;;;9.78
34807;BMP280;18310;55.586;12.286;2023-11-18T14:17:53;102338.41;;;9.73
34807;BMP280;18310;55.586;12.286;2023-11-18T14:21:07;102336.00;;;9.72
34807;BMP280;18310;55.586;12.286;2023-11-18T14:24:22;102330.53;;;9.58
34807;BMP280;18310;55.586;12.286;2023-11-18T14:27:32;102335.47;;;9.56
34807;BMP280;18310;55.586;12.286;2023-11-18T14:30:52;102341.00;;;9.51
34807;BMP280;18310;55.586;12.286;2023-11-18T14:33:59;102334.06;;;9.45
34807;BMP280;18310;55.586;12.286;2023-11-18T14:37:16;102323.19;;;9.45
34807;BMP280;18310;55.586;12.286;2023-11-18T14:40:27;102329.75;;;9.44
34807;BMP280;18310;55.586;12.286;2023-11-18T14:43:32;102328.13;;;9.43
34807;BMP280;18310;55.586;12.286;2023-11-18T14:46:44;102327.63;;;9.41
34807;BMP280;18310;55.586;12.286;2023-11-18T14:49:55;102321.66;;;9.39
34807;BMP280;18310;55.586;12.286;2023-11-18T14:53:03;102320.84;;;9.38
34807;BMP280;18310;55.586;12.286;2023-11-18T14:56:09;102320.66;;;9.35
34807;BMP280;18310;55.586;12.286;2023-11-18T14:59:14;102326.09;;;9.35
34807;BMP280;18310;55.586;12.286;2023-11-18T15:02:20;102315.81;;;9.32
34807;BMP280;18310;55.586;12.286;2023-11-18T15:05:25;102308.25;;;9.29
34807;BMP280;18310;55.586;12.286;2023-11-18T15:08:34;102303.97;;;9.28
34807;BMP280;18310;55.586;12.286;2023-11-18T15:11:46;102299.09;;;9.25
34807;BMP280;18310;55.586;12.286;2023-11-18T15:14:59;102308.06;;;9.25
34807;BMP280;18310;55.586;12.286;2023-11-18T15:18:07;102289.03;;;9.25
34807;BMP280;18310;55.586;12.286;2023-11-18T15:21:23;102287.44;;;9.24
34807;BMP280;18310;55.586;12.286;2023-11-18T15:24:37;102274.44;;;9.21
34807;BMP280;18310;55.586;12.286;2023-11-18T15:27:44;102271.22;;;9.19
34807;BMP280;18310;55.586;12.286;2023-11-18T15:30:52;102281.78;;;9.21
34807;BMP280;18310;55.586;12.286;2023-11-18T15:33:59;102275.06;;;9.18
34807;BMP280;18310;55.586;12.286;2023-11-18T15:37:12;102271.84;;;9.16
34807;BMP280;18310;55.586;12.286;2023-11-18T15:40:29;102268.31;;;9.16
34807;BMP280;18310;55.586;12.286;2023-11-18T15:43:42;102259.63;;;9.14
34807;BMP280;18310;55.586;12.286;2023-11-18T15:46:56;102253.09;;;9.15
34807;BMP280;18310;55.586;12.286;2023-11-18T15:50:06;102246.06;;;9.14
34807;BMP280;18310;55.586;12.286;2023-11-18T15:53:23;102253.41;;;9.13
34807;BMP280;18310;55.586;12.286;2023-11-18T15:56:45;102247.97;;;9.13
34807;BMP280;18310;55.586;12.286;2023-11-18T15:59:55;102242.34;;;9.10
34807;BMP280;18310;55.586;12.286;2023-11-18T16:03:10;102228.44;;;9.11
34807;BMP280;18310;55.586;12.286;2023-11-18T16:06:25;102226.22;;;9.13
34807;BMP280;18310;55.586;12.286;2023-11-18T16:09:38;102219.41;;;9.16
34807;BMP280;18310;55.586;12.286;2023-11-18T16:12:55;102216.06;;;9.19
34807;BMP280;18310;55.586;12.286;2023-11-18T16:16:11;102219.00;;;9.22
34807;BMP280;18310;55.586;12.286;2023-11-18T16:19:23;102203.09;;;9.29
34807;BMP280;18310;55.586;12.286;2023-11-18T16:22:38;102204.81;;;9.39
34807;BMP280;18310;55.586;12.286;2023-11-18T16:25:49;102197.53;;;9.48
34807;BMP280;18310;55.586;12.286;2023-11-18T16:28:58;102193.63;;;9.54
34807;BMP280;18310;55.586;12.286;2023-11-18T16:32:08;102194.31;;;9.60
34807;BMP280;18310;55.586;12.286;2023-11-18T16:35:17;102213.41;;;9.68
34807;BMP280;18310;55.586;12.286;2023-11-18T16:38:23;102204.03;;;9.74
34807;BMP280;18310;55.586;12.286;2023-11-18T16:41:27;102193.56;;;9.81
34807;BMP280;18310;55.586;12.286;2023-11-18T16:44:49;102190.44;;;9.88
34807;BMP280;18310;55.586;12.286;2023-11-18T16:47:55;102186.09;;;9.87
34807;BMP280;18310;55.586;12.286;2023-11-18T16:51:00;102174.97;;;9.97
34807;BMP280;18310;55.586;12.286;2023-11-18T16:54:05;102172.78;;;9.99
34807;BMP280;18310;55.586;12.286;2023-11-18T16:57:11;102174.22;;;10.05
34807;BMP280;18310;55.586;12.286;2023-11-18T17:00:19;102167.56;;;10.11
34807;BMP280;18310;55.586;12.286;2023-11-18T17:03:32;102174.78;;;10.16
34807;BMP280;18310;55.586;12.286;2023-11-18T17:06:39;102173.66;;;10.17
34807;BMP280;18310;55.586;12.286;2023-11-18T17:09:45;102162.97;;;10.20
34807;BMP280;18310;55.586;12.286;2023-11-18T17:12:56;102158.56;;;10.24
34807;BMP280;18310;55.586;12.286;2023-11-18T17:16:16;102166.84;;;10.28
34807;BMP280;18310;55.586;12.286;2023-11-18T17:19:25;102169.59;;;10.28
34807;BMP280;18310;55.586;12.286;2023-11-18T17:22:52;102162.53;;;10.27
34807;BMP280;18310;55.586;12.286;2023-11-18T17:25:59;102160.31;;;10.29
34807;BMP280;18310;55.586;12.286;2023-11-18T17:29:08;102151.22;;;10.33
34807;BMP280;18310;55.586;12.286;2023-11-18T17:32:25;102144.34;;;10.36
34807;BMP280;18310;55.586;12.286;2023-11-18T17:35:31;102139.72;;;10.37
34807;BMP280;18310;55.586;12.286;2023-11-18T17:39:54;102131.72;;;10.40
34807;BMP280;18310;55.586;12.286;2023-11-18T17:43:00;102126.28;;;10.40
34807;BMP280;18310;55.586;12.286;2023-11-18T17:46:05;102124.38;;;10.41
34807;BMP280;18310;55.586;12.286;2023-11-18T17:49:14;102120.84;;;10.40
34807;BMP280;18310;55.586;12.286;2023-11-18T17:52:25;102110.75;;;10.41
34807;BMP280;18310;55.586;12.286;2023-11-18T17:55:30;102108.84;;;10.41
34807;BMP280;18310;55.586;12.286;2023-11-18T17:58:34;102104.50;;;10.40
34807;BMP280;18310;55.586;12.286;2023-11-18T18:01:40;102104.16;;;10.42